TimeEDT,TemperatureF,Dew PointF,Humidity,Sea Level PressureIn,VisibilityMPH,Wind Direction,Wind SpeedMPH,Gust SpeedMPH,PrecipitationIn,Events,Conditions,WindDirDegrees,DateUTC
12:15 AM,51.1,28.9,43,29.90,10.0,South,13.8,24.2,N/A,,Overcast,190,2012-10-09 04:15:00
12:35 AM,50.9,28.8,43,29.88,10.0,South,12.7,19.6,N/A,,Overcast,190,2012-10-09 04:35:00
12:55 AM,50.9,29.1,43,29.88,10.0,South,10.4,18.4,N/A,,Overcast,190,2012-10-09 04:55:00
1:15 AM,50.9,29.3,43,29.87,10.0,South,8.1,23.0,N/A,,Overcast,190,2012-10-09 05:15:00
1:35 AM,50.2,29.3,45,29.86,10.0,South,11.5,17.3,N/A,,Overcast,190,2012-10-09 05:35:00
1:55 AM,50.9,31.1,47,29.86,10.0,South,8.1,-,N/A,,Overcast,190,2012-10-09 05:55:00
2:15 AM,50.9,31.8,48,29.86,10.0,South,8.1,-,N/A,,Overcast,190,2012-10-09 06:15:00
2:55 AM,50.9,32.0,48,29.85,10.0,South,6.9,17.3,N/A,,Overcast,190,2012-10-09 06:55:00
3:15 AM,50.9,32.4,49,29.84,10.0,SSW,8.1,17.3,N/A,,Overcast,200,2012-10-09 07:15:00
3:54 AM,50.9,33.4,51,29.82,10.0,South,11.5,18.4,N/A,,Mostly Cloudy,190,2012-10-09 07:54:00
4:15 AM,50.9,34.2,53,29.81,10.0,SSW,12.7,20.7,N/A,,Scattered Clouds,200,2012-10-09 08:15:00
4:35 AM,50.9,34.3,53,29.81,10.0,SSW,11.5,21.9,N/A,,Scattered Clouds,200,2012-10-09 08:35:00
5:15 AM,50.9,35.1,55,29.80,10.0,SSW,15.0,23.0,N/A,,Mostly Cloudy,200,2012-10-09 09:15:00
5:35 AM,50.9,35.1,55,29.79,10.0,SSW,16.1,25.3,N/A,,Overcast,200,2012-10-09 09:35:00
5:54 AM,50.9,35.2,55,29.80,10.0,SSW,15.0,25.3,N/A,,Mostly Cloudy,200,2012-10-09 09:54:00
6:15 AM,50.9,35.6,56,29.80,10.0,SSW,12.7,24.2,N/A,,Scattered Clouds,200,2012-10-09 10:15:00
6:35 AM,50.9,36.3,57,29.80,10.0,SSW,11.5,21.9,N/A,,Mostly Cloudy,200,2012-10-09 10:35:00
6:55 AM,50.0,35.8,58,29.79,10.0,South,15.0,23.0,N/A,,Scattered Clouds,190,2012-10-09 10:55:00
7:15 AM,50.0,36.0,59,29.79,10.0,SSW,12.7,19.6,N/A,,Scattered Clouds,200,2012-10-09 11:15:00
7:35 AM,50.0,36.0,59,29.79,10.0,SSW,12.7,21.9,N/A,,Clear,200,2012-10-09 11:35:00
7:55 AM,50.2,36.5,59,29.79,10.0,SSW,13.8,23.0,N/A,,Mostly Cloudy,200,2012-10-09 11:55:00
8:15 AM,50.2,36.9,60,29.80,10.0,SSW,11.5,19.6,N/A,,Overcast,200,2012-10-09 12:15:00
8:35 AM,50.2,37.4,62,29.80,10.0,SSW,13.8,19.6,N/A,,Mostly Cloudy,200,2012-10-09 12:35:00
8:55 AM,50.7,37.8,61,29.80,10.0,SSW,12.7,17.3,N/A,,Mostly Cloudy,200,2012-10-09 12:55:00
9:15 AM,50.9,38.1,62,29.81,10.0,SSW,10.4,20.7,N/A,,Overcast,210,2012-10-09 13:15:00
9:35 AM,50.9,38.3,62,29.81,10.0,SSW,12.7,20.7,N/A,,Overcast,210,2012-10-09 13:35:00
9:55 AM,50.9,39.2,64,29.81,10.0,SW,12.7,18.4,N/A,Rain,Light Rain,220,2012-10-09 13:55:00
10:15 AM,50.9,39.2,64,29.80,10.0,SSW,12.7,-,N/A,,Overcast,210,2012-10-09 14:15:00
10:34 AM,50.9,39.6,65,29.81,10.0,SSW,11.5,19.6,N/A,,Overcast,210,2012-10-09 14:34:00
10:55 AM,50.9,39.9,66,29.81,10.0,SSW,11.5,17.3,N/A,,Overcast,210,2012-10-09 14:55:00
11:15 AM,50.7,41.0,69,29.81,10.0,SSW,10.4,16.1,N/A,,Drizzle,210,2012-10-09 15:15:00
11:34 AM,50.7,41.4,70,29.81,10.0,SW,8.1,-,N/A,,Drizzle,220,2012-10-09 15:34:00
11:55 AM,50.9,41.4,70,29.80,10.0,SSW,6.9,-,N/A,,Drizzle,210,2012-10-09 15:55:00
12:15 PM,50.7,41.9,72,29.79,10.0,SSW,6.9,-,N/A,,Light Drizzle,210,2012-10-09 16:15:00
12:34 PM,51.1,41.0,68,29.79,10.0,SSW,9.2,-,N/A,,Overcast,210,2012-10-09 16:34:00
12:55 PM,53.6,42.8,67,29.78,10.0,SSW,8.1,-,N/A,,Overcast,200,2012-10-09 16:55:00
1:15 PM,53.6,42.3,65,29.77,10.0,SSW,6.9,-,N/A,,Overcast,200,2012-10-09 17:15:00
1:34 PM,53.6,42.1,65,29.76,10.0,SW,6.9,-,N/A,,Overcast,220,2012-10-09 17:34:00
1:55 PM,53.6,42.4,66,29.75,10.0,SW,3.5,-,N/A,Rain,Rain,230,2012-10-09 17:55:00
2:15 PM,53.6,43.7,69,29.74,10.0,Calm,Calm,-,N/A,,Overcast,0,2012-10-09 18:15:00
2:34 PM,53.6,44.2,71,29.73,10.0,Calm,Calm,-,N/A,,Overcast,0,2012-10-09 18:34:00
2:55 PM,53.6,44.6,72,29.73,10.0,WNW,4.6,-,N/A,,Overcast,290,2012-10-09 18:55:00
3:15 PM,53.6,44.8,72,29.71,10.0,Calm,Calm,-,N/A,,Overcast,0,2012-10-09 19:15:00
3:34 PM,53.6,45.0,73,29.71,10.0,Calm,Calm,-,N/A,,Overcast,0,2012-10-09 19:34:00
3:55 PM,52.9,45.7,77,29.70,10.0,NE,3.5,-,N/A,,Overcast,50,2012-10-09 19:55:00
4:15 PM,53.6,45.9,75,29.68,10.0,Calm,Calm,-,N/A,Rain,Light Rain,0,2012-10-09 20:15:00
4:35 PM,53.6,45.5,74,29.66,10.0,Calm,Calm,-,N/A,,Overcast,0,2012-10-09 20:35:00
4:55 PM,53.6,44.6,72,29.66,10.0,Calm,Calm,-,N/A,,Overcast,0,2012-10-09 20:55:00
5:15 PM,53.6,45.1,73,29.66,10.0,Calm,Calm,-,N/A,,Overcast,0,2012-10-09 21:15:00
5:35 PM,53.6,45.9,75,29.65,10.0,Calm,Calm,-,N/A,Rain,Light Rain,0,2012-10-09 21:35:00
5:55 PM,53.6,47.1,79,29.65,10.0,SW,10.4,16.1,N/A,,Overcast,230,2012-10-09 21:55:00
6:15 PM,55.4,45.5,69,29.66,7.0,SW,17.3,27.6,N/A,,Drizzle,230,2012-10-09 22:15:00
6:35 PM,53.6,46.8,78,29.66,7.0,WSW,12.7,23.0,N/A,Rain,Light Rain,240,2012-10-09 22:35:00
6:55 PM,53.6,48.4,82,29.67,7.0,WSW,11.5,21.9,N/A,Rain,Rain,240,2012-10-09 22:55:00
7:15 PM,53.6,48.4,82,29.66,10.0,SW,17.3,23.0,N/A,Rain,Light Rain,230,2012-10-09 23:15:00
7:35 PM,50.4,45.1,82,29.67,7.0,WSW,16.1,31.1,N/A,Rain,Light Rain,240,2012-10-09 23:35:00
7:55 PM,50.9,46.4,85,29.67,10.0,WSW,16.1,26.5,N/A,Rain,Rain,250,2012-10-09 23:55:00
8:15 PM,48.7,43.9,83,29.69,7.0,WSW,19.6,29.9,N/A,Rain,Rain,240,2012-10-10 00:15:00
8:35 PM,48.6,44.1,84,29.68,7.0,SW,18.4,29.9,N/A,Rain,Light Rain,230,2012-10-10 00:35:00
8:55 PM,48.4,43.9,84,29.69,7.0,West,13.8,28.8,N/A,Rain,Rain,270,2012-10-10 00:55:00
9:14 PM,46.4,41.7,84,29.70,7.0,West,11.5,20.7,N/A,Rain,Heavy Rain,270,2012-10-10 01:14:00
9:35 PM,46.2,41.7,84,29.70,10.0,West,13.8,20.7,N/A,Rain,Rain,270,2012-10-10 01:35:00
9:55 PM,46.2,41.9,85,29.71,10.0,West,13.8,20.7,N/A,Rain,Rain,270,2012-10-10 01:55:00
10:14 PM,44.1,39.6,84,29.71,7.0,West,10.4,19.6,N/A,Rain,Rain,270,2012-10-10 02:14:00
10:35 PM,43.0,38.8,85,29.72,7.0,West,10.4,-,N/A,Rain,Rain,270,2012-10-10 02:35:00
10:55 PM,41.7,36.3,81,29.72,7.0,West,9.2,17.3,N/A,Rain,Rain,270,2012-10-10 02:55:00
11:14 PM,41.0,36.5,84,29.72,7.0,West,5.8,-,N/A,,Heavy Drizzle,280,2012-10-10 03:14:00
11:35 PM,41.0,35.6,81,29.71,10.0,West,6.9,-,N/A,Rain,Light Rain,280,2012-10-10 03:35:00
11:55 PM,41.0,35.8,82,29.72,5.0,West,5.8,-,N/A,Rain,Rain,260,2012-10-10 03:55:00